createdAt,value
2022-11-08T00:00:06.239Z,15.46
2022-11-08T00:02:33.247Z,15.30
2022-11-08T00:05:21.603Z,15.31
2022-11-08T00:08:06.964Z,15.58
2022-11-08T00:10:52.832Z,15.60
2022-11-08T00:13:38.124Z,15.39
2022-11-08T00:16:05.355Z,15.48
2022-11-08T00:18:34.361Z,15.57
2022-11-08T00:21:04.322Z,15.37
2022-11-08T00:23:31.335Z,15.66
2022-11-08T00:25:59.091Z,15.64
2022-11-08T00:28:26.120Z,15.50
2022-11-08T00:30:55.186Z,15.60
2022-11-08T00:33:22.372Z,15.57
2022-11-08T00:35:52.482Z,15.67
2022-11-08T00:38:21.833Z,15.60
2022-11-08T00:40:51.572Z,15.64
2022-11-08T00:43:18.728Z,15.65
2022-11-08T00:45:48.019Z,15.81
2022-11-08T00:48:15.210Z,15.47
2022-11-08T00:50:42.432Z,15.40
2022-11-08T00:53:09.392Z,15.56
2022-11-08T00:55:36.575Z,15.44
2022-11-08T00:58:03.654Z,15.35
2022-11-08T01:00:30.816Z,15.39
2022-11-08T01:03:16.313Z,15.25
2022-11-08T01:05:47.929Z,15.49
2022-11-08T01:08:17.791Z,15.68
2022-11-08T01:10:48.858Z,15.53
2022-11-08T01:13:16.647Z,15.52
2022-11-08T01:15:45.782Z,15.52
2022-11-08T01:18:15.943Z,15.42
2022-11-08T01:20:45.090Z,15.45
2022-11-08T01:23:15.496Z,15.68
2022-11-08T01:25:45.866Z,15.27
2022-11-08T01:28:13.710Z,15.20
2022-11-08T01:30:42.926Z,15.21
2022-11-08T01:33:12.813Z,15.30
2022-11-08T01:35:43.196Z,15.02
2022-11-08T01:38:10.960Z,14.95
2022-11-08T01:40:47.652Z,15.14
2022-11-08T01:43:44.703Z,15.10
2022-11-08T01:46:30.243Z,15.01
2022-11-08T01:49:20.166Z,15.20
2022-11-08T01:52:13.434Z,15.07
2022-11-08T01:55:11.166Z,14.98
2022-11-08T01:58:05.166Z,14.90
2022-11-08T02:00:39.783Z,14.90
2022-11-08T02:03:12.823Z,15.15
2022-11-08T02:05:42.890Z,15.33
2022-11-08T02:08:15.780Z,15.15
2022-11-08T02:10:53.412Z,15.02
2022-11-08T02:13:27.871Z,14.95
2022-11-08T02:15:55.687Z,15.11
2022-11-08T02:18:32.211Z,15.26
2022-11-08T02:21:18.065Z,15.01
2022-11-08T02:24:02.375Z,15.02
2022-11-08T02:26:34.764Z,14.95
2022-11-08T02:29:35.711Z,14.98
2022-11-08T02:32:07.981Z,14.79
2022-11-08T02:34:41.916Z,14.74
2022-11-08T02:37:14.592Z,14.75
2022-11-08T02:39:41.444Z,14.49
2022-11-08T02:42:20.091Z,14.46
2022-11-08T02:44:47.738Z,14.33
2022-11-08T02:47:18.184Z,14.58
2022-11-08T02:49:45.067Z,14.74
2022-11-08T02:52:12.202Z,14.63
2022-11-08T02:54:39.200Z,14.61
2022-11-08T02:57:06.174Z,14.44
2022-11-08T02:59:33.219Z,14.32
2022-11-08T03:02:07.582Z,14.31
2022-11-08T03:04:34.718Z,14.24
2022-11-08T03:07:01.638Z,14.28
2022-11-08T03:09:28.647Z,14.46
2022-11-08T03:11:58.682Z,14.37
2022-11-08T03:14:26.278Z,14.40
2022-11-08T03:16:53.181Z,14.12
2022-11-08T03:19:20.034Z,14.09
2022-11-08T03:21:46.906Z,14.25
2022-11-08T03:24:15.976Z,14.25
2022-11-08T03:26:44.656Z,14.26
2022-11-08T03:29:11.600Z,14.37
2022-11-08T03:31:41.104Z,14.45
2022-11-08T03:34:10.511Z,14.39
2022-11-08T03:36:40.068Z,14.37
2022-11-08T03:39:06.967Z,14.31
2022-11-08T03:41:33.905Z,14.26
2022-11-08T03:44:02.993Z,14.16
2022-11-08T03:46:30.099Z,14.37
2022-11-08T03:48:57.084Z,14.38
2022-11-08T03:51:26.518Z,14.21
2022-11-08T03:53:53.374Z,14.25
2022-11-08T03:56:20.298Z,14.12
2022-11-08T03:58:47.431Z,14.18
2022-11-08T04:01:14.438Z,14.18
2022-11-08T04:03:41.426Z,14.07
2022-11-08T04:06:08.630Z,14.08
2022-11-08T04:08:35.625Z,14.31
2022-11-08T04:11:22.445Z,14.26
2022-11-08T04:14:18.665Z,14.07
2022-11-08T04:16:45.675Z,13.95
2022-11-08T04:19:33.478Z,13.96
2022-11-08T04:22:03.385Z,14.06
2022-11-08T04:24:30.250Z,13.84
2022-11-08T04:26:57.271Z,13.76
2022-11-08T04:29:26.356Z,13.81
2022-11-08T04:31:55.792Z,14.03
2022-11-08T04:34:22.806Z,13.96
2022-11-08T04:36:49.742Z,13.85
2022-11-08T04:39:16.789Z,13.90
2022-11-08T04:41:43.648Z,13.81
2022-11-08T04:44:11.758Z,13.72
2022-11-08T04:46:41.184Z,13.74
2022-11-08T04:49:08.606Z,13.63
2022-11-08T04:51:38.077Z,13.53
2022-11-08T04:54:07.687Z,13.33
2022-11-08T04:56:34.758Z,13.55
2022-11-08T04:59:01.894Z,13.43
2022-11-08T05:01:31.823Z,13.48
2022-11-08T05:03:59.376Z,13.54
2022-11-08T05:06:31.566Z,13.62
2022-11-08T05:08:59.723Z,13.36
2022-11-08T05:11:29.749Z,13.41
2022-11-08T05:14:01.632Z,13.51
2022-11-08T05:16:32.582Z,13.41
2022-11-08T05:19:00.128Z,13.30
2022-11-08T05:21:48.875Z,13.27
2022-11-08T05:24:17.880Z,13.38
2022-11-08T05:26:48.640Z,13.16
2022-11-08T05:29:18.928Z,13.25
2022-11-08T05:31:48.028Z,13.17
2022-11-08T05:34:17.484Z,13.40
2022-11-08T05:36:44.351Z,13.30
2022-11-08T05:39:11.204Z,13.29
2022-11-08T05:41:42.644Z,13.20
2022-11-08T05:44:09.634Z,13.20
2022-11-08T05:46:38.967Z,13.19
2022-11-08T05:49:05.907Z,13.04
2022-11-08T05:51:37.310Z,13.30
2022-11-08T05:54:09.252Z,13.37
2022-11-08T05:56:40.826Z,13.11
2022-11-08T05:59:10.056Z,13.11
2022-11-08T06:01:36.982Z,12.98
2022-11-08T06:04:06.450Z,12.84
2022-11-08T06:06:33.583Z,13.08
2022-11-08T06:09:00.513Z,13.11
2022-11-08T06:11:28.437Z,13.12
2022-11-08T06:13:56.363Z,13.27
2022-11-08T06:16:24.334Z,13.16
2022-11-08T06:18:53.797Z,13.05
2022-11-08T06:21:21.606Z,13.10
2022-11-08T06:23:52.628Z,13.18
2022-11-08T06:26:19.521Z,13.41
2022-11-08T06:28:48.757Z,13.33
2022-11-08T06:31:19.158Z,13.44
2022-11-08T06:33:46.183Z,13.25
2022-11-08T06:36:13.148Z,13.29
2022-11-08T06:38:43.288Z,13.31
2022-11-08T06:41:18.975Z,13.37
2022-11-08T06:43:45.843Z,13.20
2022-11-08T06:46:15.756Z,13.34
2022-11-08T06:48:44.948Z,13.24
2022-11-08T06:51:11.855Z,13.24
2022-11-08T06:53:38.762Z,13.21
2022-11-08T06:56:08.184Z,13.41
2022-11-08T06:58:35.154Z,13.25
2022-11-08T07:01:07.229Z,13.21
2022-11-08T07:03:37.342Z,13.46
2022-11-08T07:06:06.211Z,13.61
2022-11-08T07:08:36.673Z,13.76
2022-11-08T07:11:06.612Z,13.94
2022-11-08T07:13:34.268Z,14.38
2022-11-08T07:16:01.723Z,15.04
2022-11-08T07:18:29.315Z,15.63
2022-11-08T07:21:03.631Z,15.62
2022-11-08T07:23:31.229Z,15.62
2022-11-08T07:26:08.924Z,15.42
2022-11-08T07:28:35.833Z,15.49
2022-11-08T07:31:07.540Z,15.30
2022-11-08T07:33:34.600Z,15.46
2022-11-08T07:36:01.953Z,15.51
2022-11-08T07:38:31.438Z,15.47
2022-11-08T07:41:00.544Z,15.75
2022-11-08T07:43:28.899Z,16.03
2022-11-08T07:45:59.229Z,16.74
2022-11-08T07:48:27.702Z,16.92
2022-11-08T07:50:59.515Z,17.73
2022-11-08T07:53:26.396Z,17.85
2022-11-08T07:55:55.894Z,18.34
2022-11-08T07:58:25.412Z,17.70
2022-11-08T08:00:52.351Z,17.51
2022-11-08T08:03:19.666Z,18.23
2022-11-08T08:05:57.965Z,17.83
2022-11-08T08:08:29.890Z,18.07
2022-11-08T08:11:01.086Z,18.07
2022-11-08T08:13:28.594Z,18.42
2022-11-08T08:16:01.603Z,19.19
2022-11-08T08:18:30.104Z,19.42
2022-11-08T08:20:59.586Z,19.39
2022-11-08T08:23:28.644Z,19.80
2022-11-08T08:25:56.257Z,18.36
2022-11-08T08:28:23.111Z,19.59
2022-11-08T08:30:50.018Z,20.75
2022-11-08T08:33:33.723Z,21.42
2022-11-08T08:36:01.969Z,22.10
2022-11-08T08:38:30.505Z,22.29
2022-11-08T08:40:58.613Z,23.32
2022-11-08T08:43:27.706Z,23.39
2022-11-08T08:46:00.903Z,23.09
2022-11-08T08:48:30.466Z,22.81
2022-11-08T08:51:02.672Z,22.73
2022-11-08T08:53:29.552Z,22.82
2022-11-08T08:55:58.560Z,21.59
2022-11-08T08:58:25.522Z,19.82
2022-11-08T09:03:41.507Z,19.62
2022-11-08T09:06:08.471Z,19.74
2022-11-08T09:08:35.586Z,19.20
2022-11-08T09:11:03.306Z,19.39
2022-11-08T09:13:33.169Z,19.89
2022-11-08T09:16:02.702Z,20.71
2022-11-08T09:18:31.150Z,21.30
2022-11-08T09:20:58.626Z,20.71
2022-11-08T09:23:28.185Z,20.51
2022-11-08T09:26:04.212Z,20.88
2022-11-08T09:28:37.644Z,20.80
2022-11-08T09:31:09.288Z,21.27
2022-11-08T09:33:39.954Z,21.27
2022-11-08T09:36:09.180Z,22.44
2022-11-08T09:38:36.155Z,22.61
2022-11-08T09:41:57.927Z,23.14
2022-11-08T09:44:40.091Z,22.76
2022-11-08T09:47:42.153Z,22.84
2022-11-08T09:50:21.877Z,23.16
2022-11-08T09:53:03.347Z,22.42
2022-11-08T09:55:44.130Z,22.16
2022-11-08T09:58:55.464Z,21.35
2022-11-08T10:01:27.431Z,20.97
2022-11-08T10:04:00.236Z,21.35
2022-11-08T10:07:04.251Z,23.18
2022-11-08T10:09:37.696Z,24.91
2022-11-08T10:12:46.826Z,24.48
2022-11-08T10:15:37.217Z,22.49
2022-11-08T10:18:13.326Z,21.30
2022-11-08T10:21:18.509Z,21.66
2022-11-08T10:23:58.691Z,21.31
2022-11-08T10:26:35.955Z,20.91
2022-11-08T10:29:19.771Z,20.90
2022-11-08T10:31:50.096Z,20.73
2022-11-08T10:34:24.012Z,21.74
2022-11-08T10:37:00.657Z,22.20
2022-11-08T10:39:34.357Z,22.79
2022-11-08T10:42:20.168Z,22.93
2022-11-08T10:44:47.128Z,23.13
2022-11-08T10:47:29.661Z,23.79
2022-11-08T10:50:02.500Z,23.01
2022-11-08T10:52:46.671Z,23.74
2022-11-08T10:55:38.393Z,24.77
2022-11-08T10:58:32.514Z,24.79
2022-11-08T11:01:07.753Z,24.62
2022-11-08T11:03:34.657Z,23.36
2022-11-08T11:06:05.294Z,23.12
2022-11-08T11:08:33.164Z,23.11
2022-11-08T11:11:37.385Z,22.50
2022-11-08T11:14:22.500Z,22.92
2022-11-08T11:17:07.598Z,22.84
2022-11-08T11:19:35.245Z,22.38
2022-11-08T11:22:08.271Z,22.16
2022-11-08T11:24:37.555Z,21.48
2022-11-08T11:27:20.630Z,21.36
2022-11-08T11:29:49.562Z,21.26
2022-11-08T11:32:33.285Z,20.31
2022-11-08T11:35:03.554Z,20.56
2022-11-08T11:37:40.379Z,20.93
2022-11-08T11:40:32.429Z,20.37
2022-11-08T11:43:16.040Z,20.43
2022-11-08T11:46:22.749Z,20.45
2022-11-08T11:49:00.312Z,19.93
2022-11-08T11:51:32.743Z,19.73
2022-11-08T11:54:02.627Z,19.94
2022-11-08T11:56:43.059Z,20.66
2022-11-08T11:59:40.254Z,20.52
2022-11-08T12:02:47.064Z,20.28
2022-11-08T12:05:41.455Z,20.68
2022-11-08T12:08:37.710Z,21.67
2022-11-08T12:11:59.410Z,21.73
2022-11-08T12:14:52.289Z,21.32
2022-11-08T12:18:00.538Z,21.86
2022-11-08T12:20:38.827Z,21.72
2022-11-08T12:23:38.815Z,20.65
2022-11-08T12:26:27.360Z,20.80
2022-11-08T12:29:25.100Z,20.38
2022-11-08T12:32:09.591Z,20.18
2022-11-08T12:35:03.204Z,19.56
2022-11-08T12:38:05.813Z,19.44
2022-11-08T12:40:51.260Z,19.19
2022-11-08T12:43:41.385Z,19.33
2022-11-08T12:46:19.215Z,19.31
2022-11-08T12:49:42.637Z,19.25
2022-11-08T12:52:45.828Z,19.15
2022-11-08T12:55:33.203Z,18.83
2022-11-08T12:58:13.642Z,18.70
2022-11-08T13:00:42.154Z,18.73
2022-11-08T13:03:11.994Z,18.87
2022-11-08T13:05:46.120Z,18.47
2022-11-08T13:08:27.242Z,18.63
2022-11-08T13:11:04.216Z,18.66
2022-11-08T13:13:54.724Z,18.38
2022-11-08T13:16:26.614Z,18.54
2022-11-08T13:19:08.500Z,18.34
2022-11-08T13:21:41.992Z,18.38
2022-11-08T13:24:38.376Z,18.54
2022-11-08T13:27:22.669Z,18.38
2022-11-08T13:29:53.265Z,18.40
2022-11-08T13:32:52.689Z,17.87
2022-11-08T13:35:31.348Z,17.90
2022-11-08T13:38:32.222Z,18.24
2022-11-08T13:41:15.173Z,18.00
2022-11-08T13:43:45.981Z,18.22
2022-11-08T13:46:22.958Z,18.47
2022-11-08T13:49:02.007Z,18.42
2022-11-08T13:51:44.649Z,18.33
2022-11-08T13:54:23.949Z,18.28
2022-11-08T13:57:03.167Z,18.11
2022-11-08T13:59:33.192Z,18.08
2022-11-08T14:02:21.814Z,18.35
2022-11-08T14:04:49.199Z,18.65
2022-11-08T14:08:01.678Z,18.73
2022-11-08T14:10:53.991Z,18.88
2022-11-08T14:13:42.195Z,18.84
2022-11-08T14:16:26.085Z,18.38
2022-11-08T14:18:55.186Z,18.50
2022-11-08T14:21:22.781Z,18.52
2022-11-08T14:23:51.194Z,18.31
2022-11-08T14:26:27.704Z,18.24
2022-11-08T14:28:59.840Z,18.23
2022-11-08T14:31:30.410Z,18.24
2022-11-08T14:34:01.121Z,18.03
2022-11-08T14:36:30.914Z,17.93
2022-11-08T14:39:04.620Z,17.91
2022-11-08T14:41:36.022Z,17.75
2022-11-08T14:44:05.823Z,17.80
2022-11-08T14:46:39.425Z,17.83
2022-11-08T14:49:13.751Z,17.77
2022-11-08T14:51:45.065Z,17.53
2022-11-08T14:54:27.013Z,17.41
2022-11-08T14:57:00.068Z,17.46
2022-11-08T14:59:27.475Z,17.49
2022-11-08T15:01:57.762Z,17.40
2022-11-08T15:04:27.765Z,17.39
2022-11-08T15:07:02.071Z,17.15
2022-11-08T15:09:34.554Z,17.24
2022-11-08T15:12:05.904Z,17.34
2022-11-08T15:14:36.074Z,17.25
2022-11-08T15:17:05.230Z,17.19
2022-11-08T15:19:32.001Z,17.31
2022-11-08T15:22:30.968Z,17.17
2022-11-08T15:25:38.348Z,17.20
2022-11-08T15:28:35.823Z,17.28
2022-11-08T15:31:13.143Z,17.24
2022-11-08T15:33:43.330Z,16.92
2022-11-08T15:36:16.122Z,17.18
2022-11-08T15:38:48.798Z,16.94
2022-11-08T15:41:36.863Z,16.89
2022-11-08T15:44:25.602Z,16.99
2022-11-08T15:46:56.523Z,16.94
2022-11-08T15:49:32.394Z,16.93
2022-11-08T15:52:03.435Z,17.21
2022-11-08T15:54:35.991Z,17.16
2022-11-08T15:57:05.142Z,17.12
2022-11-08T15:59:37.187Z,17.01
2022-11-08T16:02:09.342Z,17.19
2022-11-08T16:04:39.328Z,17.13
2022-11-08T16:07:09.047Z,17.28
2022-11-08T16:09:36.067Z,16.82
2022-11-08T16:12:03.717Z,17.05
2022-11-08T16:14:32.843Z,17.03
2022-11-08T16:17:02.019Z,16.81
2022-11-08T16:19:31.398Z,16.80
2022-11-08T16:22:07.181Z,16.91
2022-11-08T16:24:34.773Z,16.96
2022-11-08T16:27:02.153Z,16.92
2022-11-08T16:29:32.207Z,16.88
2022-11-08T16:31:59.089Z,16.88
2022-11-08T16:34:26.083Z,16.87
2022-11-08T16:36:54.625Z,16.77
2022-11-08T16:39:28.412Z,16.88
2022-11-08T16:41:55.298Z,16.86
2022-11-08T16:44:23.275Z,16.74
2022-11-08T16:46:53.684Z,16.85
2022-11-08T16:49:24.353Z,16.88
2022-11-08T16:51:51.385Z,16.98
2022-11-08T16:54:21.155Z,16.98
2022-11-08T16:56:48.139Z,17.06
2022-11-08T16:59:17.328Z,17.20
2022-11-08T17:01:44.688Z,17.05
2022-11-08T17:04:13.839Z,17.13
2022-11-08T17:06:40.852Z,17.18
2022-11-08T17:09:10.270Z,16.78
2022-11-08T17:11:39.621Z,16.96
2022-11-08T17:14:13.142Z,16.89
2022-11-08T17:16:40.139Z,16.89
2022-11-08T17:19:07.220Z,16.79
2022-11-08T17:21:45.459Z,16.90
2022-11-08T17:24:21.250Z,16.87
2022-11-08T17:26:50.288Z,16.73
2022-11-08T17:29:19.408Z,16.88
2022-11-08T17:31:49.506Z,16.59
2022-11-08T17:34:19.607Z,16.82
2022-11-08T17:36:46.581Z,16.84
2022-11-08T17:39:16.122Z,16.80
2022-11-08T17:41:43.022Z,16.82
2022-11-08T17:44:10.007Z,16.98
2022-11-08T17:46:36.975Z,16.77
2022-11-08T17:49:11.457Z,16.78
2022-11-08T17:51:40.791Z,16.73
2022-11-08T17:54:10.854Z,16.79
2022-11-08T17:56:39.817Z,16.74
2022-11-08T17:59:06.730Z,16.66
2022-11-08T18:01:33.947Z,16.91
2022-11-08T18:04:06.474Z,16.68
2022-11-08T18:06:35.948Z,16.60
2022-11-08T18:09:03.008Z,16.70
2022-11-08T18:11:29.896Z,16.66
2022-11-08T18:13:56.993Z,16.67
2022-11-08T18:16:24.012Z,16.74
2022-11-08T18:18:51.820Z,16.64
2022-11-08T18:21:19.858Z,16.79
2022-11-08T18:23:48.993Z,16.69
2022-11-08T18:26:17.276Z,16.81
2022-11-08T18:28:47.192Z,16.54
2022-11-08T18:31:18.260Z,16.41
2022-11-08T18:33:46.189Z,16.59
2022-11-08T18:36:26.182Z,16.47
2022-11-08T18:38:59.248Z,16.17
2022-11-08T18:41:31.702Z,16.51
2022-11-08T18:44:01.137Z,16.47
2022-11-08T18:46:36.542Z,16.33
2022-11-08T18:49:05.926Z,16.47
2022-11-08T18:51:35.147Z,16.42
2022-11-08T18:54:02.058Z,16.52
2022-11-08T18:56:31.183Z,16.38
2022-11-08T18:59:02.769Z,16.52
2022-11-08T19:01:29.820Z,16.40
2022-11-08T19:03:59.199Z,16.39
2022-11-08T19:06:28.905Z,16.40
2022-11-08T19:08:57.527Z,16.47
2022-11-08T19:11:24.406Z,16.66
2022-11-08T19:13:51.297Z,16.50
2022-11-08T19:16:20.686Z,16.51
2022-11-08T19:18:49.814Z,16.47
2022-11-08T19:21:25.857Z,16.60
2022-11-08T19:23:57.838Z,16.57
2022-11-08T19:26:31.367Z,16.53
2022-11-08T19:29:01.284Z,16.55
2022-11-08T19:31:28.229Z,16.41
2022-11-08T19:33:55.761Z,16.55
2022-11-08T19:36:27.382Z,16.50
2022-11-08T19:38:58.217Z,16.56
2022-11-08T19:41:28.100Z,16.55
2022-11-08T19:43:55.238Z,16.59
2022-11-08T19:46:30.556Z,16.75
2022-11-08T19:49:02.405Z,16.79
2022-11-08T19:51:33.025Z,16.77
2022-11-08T19:54:06.436Z,16.82
2022-11-08T19:57:04.285Z,16.89
2022-11-08T19:59:25.613Z,16.81
2022-11-08T20:01:52.670Z,16.65
2022-11-08T20:04:22.630Z,16.55
2022-11-08T20:06:49.594Z,16.64
2022-11-08T20:09:16.786Z,16.82
2022-11-08T20:11:43.881Z,16.78
2022-11-08T20:14:15.426Z,16.88
2022-11-08T20:16:52.110Z,16.69
2022-11-08T20:19:20.717Z,16.56
2022-11-08T20:21:52.407Z,16.86
2022-11-08T20:24:22.008Z,16.75
2022-11-08T20:26:51.179Z,16.61
2022-11-08T20:29:18.381Z,16.74
2022-11-08T20:31:48.133Z,16.84
2022-11-08T20:34:18.788Z,16.83
2022-11-08T20:36:46.651Z,16.94
2022-11-08T20:39:18.399Z,16.93
2022-11-08T20:41:45.388Z,16.69
2022-11-08T20:44:15.031Z,16.76
2022-11-08T20:46:44.341Z,16.86
2022-11-08T20:49:11.470Z,16.71
2022-11-08T20:51:38.401Z,16.88
2022-11-08T20:54:11.402Z,17.08
2022-11-08T20:56:38.642Z,16.84
2022-11-08T20:59:11.020Z,16.76
2022-11-08T21:01:40.539Z,16.64
2022-11-08T21:04:08.809Z,16.62
2022-11-08T21:06:36.649Z,16.78
2022-11-08T21:11:53.746Z,16.81
2022-11-08T21:14:21.198Z,16.88
2022-11-08T21:17:19.637Z,16.78
2022-11-08T21:19:35.403Z,16.74
2022-11-08T21:22:20.113Z,16.79
2022-11-08T21:24:48.287Z,16.78
2022-11-08T21:27:16.645Z,16.79
2022-11-08T21:29:43.554Z,16.77
2022-11-08T21:32:13.001Z,16.76
2022-11-08T21:34:46.211Z,16.90
2022-11-08T21:37:13.759Z,16.93
2022-11-08T21:39:43.389Z,16.95
2022-11-08T21:42:10.328Z,16.96
2022-11-08T21:44:41.793Z,16.90
2022-11-08T21:47:11.109Z,16.67
2022-11-08T21:49:42.554Z,16.76
2022-11-08T21:52:09.538Z,16.72
2022-11-08T21:54:39.525Z,16.74
2022-11-08T21:57:06.418Z,16.89
2022-11-08T21:59:33.340Z,16.90
2022-11-08T22:02:02.494Z,16.73
2022-11-08T22:04:29.409Z,16.77
2022-11-08T22:06:56.567Z,16.77
2022-11-08T22:09:23.574Z,17.00
2022-11-08T22:11:50.444Z,17.09
2022-11-08T22:14:17.355Z,16.96
2022-11-08T22:16:44.313Z,17.04
2022-11-08T22:19:16.484Z,17.05
2022-11-08T22:21:44.481Z,17.00
2022-11-08T22:24:21.956Z,16.97
2022-11-08T22:26:50.514Z,16.88
2022-11-08T22:29:18.087Z,16.83
2022-11-08T22:31:45.489Z,17.02
2022-11-08T22:34:15.084Z,16.89
2022-11-08T22:36:45.712Z,16.76
2022-11-08T22:39:18.648Z,16.80
2022-11-08T22:41:47.576Z,16.76
2022-11-08T22:44:22.105Z,16.66
2022-11-08T22:46:51.648Z,16.66
2022-11-08T22:49:18.586Z,16.67
2022-11-08T22:51:48.002Z,16.67
2022-11-08T22:54:17.357Z,16.74
2022-11-08T22:56:44.359Z,16.91
2022-11-08T22:59:16.262Z,16.68
2022-11-08T23:01:43.321Z,16.57
2022-11-08T23:04:11.312Z,16.53
2022-11-08T23:06:39.639Z,16.58
2022-11-08T23:09:07.307Z,16.72
2022-11-08T23:11:52.626Z,16.68
2022-11-08T23:14:38.036Z,16.69
2022-11-08T23:17:07.998Z,16.85
2022-11-08T23:19:55.816Z,16.81
2022-11-08T23:22:41.342Z,16.64
2022-11-08T23:25:08.669Z,16.46
2022-11-08T23:27:56.519Z,16.45
2022-11-08T23:30:44.133Z,16.42
2022-11-08T23:33:13.289Z,16.27
2022-11-08T23:36:00.229Z,16.46
2022-11-08T23:38:29.915Z,16.50
2022-11-08T23:41:18.017Z,16.50
2022-11-08T23:44:03.576Z,16.61
2022-11-08T23:46:30.397Z,16.46
2022-11-08T23:48:59.525Z,16.41
2022-11-08T23:51:28.937Z,16.22
2022-11-08T23:53:55.975Z,16.25
2022-11-08T23:56:29.507Z,16.45
2022-11-08T23:58:59.107Z,16.54
